Главная страница
METAR-TAF:

METAR-TAF

Аэропорты :

Куньмин Чаншуй

Куньмин, Китай

широта: 25-01N, долгота: 102-41E, высота над уровнем моря: 1892 м

Текущие метеонаблюдения

Эта сводка был подготовлена 1 час и 8 минут назад, в 09:00 UTC
Ветер 19 Узел от юго-западный
Температура 24°C
Влажность 18%
Давление 1019 hPa
Видимость 10 км и более
Нет облачности ниже 1500 м, и нет кучево-дождевой облачности

METAR: ZPPP 260900Z 22010MPS CAVOK 24/M02 Q1019 NOSIG

Время: 18:08 (10:08 UTC)

Прогноз

Эта сводка был подготовлена 9 часа и 2 минут назад, в 01:06 UTC
Прогноз действительный с 26-го 06 UTC до 27-го 06 UTC
Ветер 23 Узел от юго-западный с порывами до 33 Узел
Видимость 10 км и более
Нет облачности ниже 1500 м, и нет кучево-дождевой облачности
изменения
С 26-го 11 UTC до 26-го 12 UTC
Ветер 14 Узел от юго-западный

TAF: ZPPP 260106Z 2606/2706 23012G17MPS CAVOK TX23/2608Z TN10/2623Z BECMG 2611/2612 23007MPS

Метеонаблюдения и прогнозы для более 4000 аэропортов (сводки METAR и TAF).

Имеющиеся станции представлены на карте желтыми и красными точками.

Чтобы увидеть название станции, наведите на нее мышь.

Затем щелкните, чтобы увидеть метеонаблюдения и метеопрогнозы.

Управление картой: чтобы увеличить масштаб, щелкните зеленые кнопки с черным крестиком; чтобы уменьшить масштаб, щелкните зеленую кнопку с тире; для просмотра соседних карт щелкайте зеленые стрелки.


METAR-TAF: